^^

Nearby METAR Reports

 

EGNV - Tees-Side, United Kingdom
Distance from station: SW 7mi, 11km
Updated: 27/05/2017 06:50
Haze
Haze
 Wind from varies
Wind: varies 1 mph , 2 km/h
Temperature: 14°C
Dew Point: 12°C
Humidity: 88%
Barometer: 1013 hPa
Summary: Haze
Visibility: 3 miles , 5 km
2017/05/27 05:50 EGNV 270550Z VRB01KT 5000 HZ 14/12 Q1013
EGXE - Leeming Raf, United Kingdom
Distance from station: SSW 23mi, 37km
Updated: 27/05/2017 06:50
Mist, Clear
Mist, Clear
 Wind from WNW
Wind: WNW 3 mph , 6 km/h
Temperature: 13°C
Dew Point: 12°C
Humidity: 94%
Barometer: 1013 hPa
Summary: Mist
Clouds: Clear
Visibility: 3 miles , 4 km
2017/05/27 05:50 EGXE 270550Z AUTO 29003KT 4300 BR NCD 13/12 Q1013
 
EGXZ - Topcliffe Raf, United Kingdom
Distance from station: S 27mi, 43km
Updated: 27/05/2017 06:50
Mist, Clear
Mist, Clear
 Wind from WNW
Wind: WNW 6 mph , 9 km/h
Temperature: 13°C
Dew Point: 12°C
Humidity: 94%
Barometer: 1013 hPa
Summary: Mist
Clouds: Clear
Visibility: 4 miles , 6 km
2017/05/27 05:50 EGXZ 270550Z AUTO 29005KT 6000 BR NCD 13/12 Q1013
EGXD - Dishforth Raf, United Kingdom
Distance from station: S 32mi, 51km
Updated: 06/06/2016 10:50
NOT Current
Clear
Clear
 Wind from SSE
Wind: SSE 5 mph , 7 km/h
Temperature: 18°C
Dew Point: 11°C
Humidity: 64%
Barometer: 1023 hPa
Clouds: Clear
Visibility: 6 miles , 10 km
2016/06/06 09:50 EGXD 060950Z AUTO 16004KT 9999 // NCD 18/11 Q1023
 
EGNT - Newcastle, United Kingdom
Distance from station: NNW 34mi, 54km
Updated: 27/05/2017 06:50
Partly cloudy
Partly cloudy
 Wind from varies
Wind: varies 1 mph , 2 km/h
Temperature: 13°C
Dew Point: 12°C
Humidity: 94%
Barometer: 1013 hPa
Clouds: Partly cloudy
Visibility: 6 miles , 9 km
2017/05/27 05:50 EGNT 270550Z VRB01KT 9000 NSC 13/12 Q1013
EGXU - Linton-On-Ouse R, United Kingdom
Distance from station: S 37mi, 60km
Updated: 27/05/2017 06:50
Clear
Clear
 Wind from ESE
Wind: ESE 3 mph , 6 km/h
Temperature: 15°C
Dew Point: 12°C
Humidity: 82%
Barometer: 1013 hPa
Clouds: Clear
Visibility: 6 miles , 10 km
2017/05/27 05:50 EGXU 270550Z AUTO 12003KT 9999 // NCD 15/12 Q1013
 
EGNM - Leeds And Bradfo, United Kingdom
Distance from station: SSW 52mi, 83km
Updated: 27/05/2017 06:50
Mist, Partly cloudy
Mist, Partly cloudy
 Wind from ENE
Wind: ENE 5 mph , 7 km/h
Temperature: 14°C
Dew Point: 13°C
Humidity: 94%
Barometer: 1013 hPa
Summary: Mist
Clouds: Partly cloudy
Visibility: 2 miles , 4 km
2017/05/27 05:50 EGNM 270550Z 06004KT 360V100 4000 BR NSC 14/13 Q1013
EGXG - Church Fenton Ra, United Kingdom
Distance from station: S 52mi, 84km
Updated: 19/12/2013 08:50
NOT Current
Clear
Clear
 Wind from SW
Wind: SW 16 mph , 26 km/h
Temperature: 4°C
Wind Chill: -1°C
Dew Point: -1°C
Humidity: 70%
Barometer: 996 hPa
Clouds: Clear
Visibility: 6 miles , 10 km
2013/12/19 08:50 EGXG 190850Z AUTO 23014KT 9999 NCD 04/M01 Q0996
 
EGOM - Spadeadam, United Kingdom
Distance from station: WNW 58mi, 94km
Updated: 27/05/2017 06:50
Clear
Clear
 Wind from ENE
Wind: ENE 9 mph , 15 km/h
Temperature: 14°C
Dew Point: 12°C
Humidity: 88%
Barometer: 1012 hPa
Clouds: Clear
Visibility: 6 miles , 10 km
2017/05/27 05:50 EGOM 270550Z AUTO 06008KT 9999 NCD 14/12 Q1012
EGNC - Carlisle, United Kingdom
Distance from station: WNW 65mi, 105km
Updated: 26/05/2017 17:50
NOT Current
Few Clouds
Few Clouds
 Wind from SSE
Wind: SSE 7 mph , 11 km/h
Temperature: 26°C
Dew Point: 13°C
Humidity: 45%
Barometer: 1014 hPa
Clouds: Few Clouds
Visibility: 6 miles , 10 km
Cloud details: Few Clouds 1280 m
2017/05/26 16:50 EGNC 261650Z 16006KT 090V210 9999 FEW042 26/13 Q1014
 
EGCN - Doncaster Sheffi, United Kingdom
Distance from station: S 77mi, 124km
Updated: 27/05/2017 06:50
Clear
Clear
 Wind from varies
Wind: varies 3 mph , 6 km/h
Temperature: 15°C
Dew Point: 14°C
Humidity: 94%
Barometer: 1013 hPa
Summary: Clear
Visibility: greater than 7 miles , 10 km
2017/05/27 05:50 EGCN 270550Z VRB03KT CAVOK 15/14 Q1013
EGNJ - Humberside, United Kingdom
Distance from station: SSE 80mi, 129km
Updated: 27/05/2017 06:50
Partly cloudy
Partly cloudy
 Wind from varies
Wind: varies 3 mph , 6 km/h
Temperature: 16°C
Dew Point: 14°C
Humidity: 88%
Barometer: 1013 hPa
Clouds: Partly cloudy
Visibility: 6 miles , 9 km
2017/05/27 05:50 EGNJ 270550Z VRB03KT 9000 NSC 16/14 Q1013
 
EGNH - Blackpool Airpor, United Kingdom
Distance from station: SW 90mi, 145km
Updated: 27/05/2017 06:50
Clear
Clear
 Wind from E
Wind: E 9 mph , 15 km/h
Temperature: 17°C
Dew Point: 13°C
Humidity: 77%
Barometer: 1011 hPa
Summary: Clear
Visibility: greater than 7 miles , 10 km
2017/05/27 05:50 EGNH 270550Z 10008KT CAVOK 17/13 Q1011
EGXP - Scampton Raf, United Kingdom
Distance from station: SSE 94mi, 151km
Updated: 27/05/2017 06:50
Clear
Clear
 Wind from SE
Wind: SE 8 mph , 13 km/h
Temperature: 16°C
Dew Point: 13°C
Humidity: 83%
Barometer: 1012 hPa
Clouds: Clear
Visibility: 6 miles , 10 km
2017/05/27 05:50 EGXP 270550Z AUTO 13007KT 9999 // NCD 16/13 Q1012
 
EGCC - Manchester Intl, United Kingdom
Distance from station: SSW 94mi, 152km
Updated: 27/05/2017 06:50
Clear
Clear
 Wind from varies
Wind: varies 3 mph , 6 km/h
Temperature: 19°C
Dew Point: 12°C
Humidity: 64%
Barometer: 1011 hPa
Clouds: Clear
Visibility: 6 miles , 10 km
2017/05/27 05:50 EGCC 270550Z AUTO VRB03KT 9999 NCD 19/12 Q1011 TEMPO SHRA
EGOW - Woodvale Raf, United Kingdom
Distance from station: SW 100mi, 160km
Updated: 25/05/2017 16:50
NOT Current
Partly cloudy
Partly cloudy
 Wind from ESE
Wind: ESE 8 mph , 13 km/h
Temperature: 27°C
Heat Index: 27°C
Dew Point: 13°C
Humidity: 42%
Barometer: 1021 hPa
Clouds: Partly cloudy
Visibility: 6 miles , 10 km
Cloud details: Partly cloudy 1372 m
2017/05/25 15:50 EGOW 251550Z 12007KT 9999 SCT045 27/13 Q1021 BLU